Time;durP1;ratioP1;P1;durP2;ratioP2;P2;SDS_P1;SDS_P2;PMS_P1;PMS_P2;Temp;Humidity;BMP_temperature;BMP_pressure;BME280_temperature;BME280_humidity;BME280_pressure;Samples;Min_cycle;Max_cycle;Signal;HPM_P1;HPM_P2
2021/12/12 00:01:42;;;;;;;36.28;25.88;;;1.60;99.90;;;;;;5061973;28;20483;-58
2021/12/12 00:04:13;;;;;;;39.65;26.48;;;1.60;99.90;;;;;;5059204;28;20387;-58
2021/12/12 00:06:50;;;;;;;40.20;26.65;;;1.60;99.90;;;;;;5068009;28;20421;-59
2021/12/12 00:09:31;;;;;;;37.88;25.33;;;1.60;99.90;;;;;;5051650;28;20031;-58
2021/12/12 00:11:59;;;;;;;35.92;24.55;;;1.60;99.90;;;;;;5058771;28;20123;-58
2021/12/12 00:14:30;;;;;;;37.50;26.13;;;1.70;99.90;;;;;;5061135;28;20052;-58
2021/12/12 00:16:57;;;;;;;37.33;26.65;;;1.80;99.90;;;;;;5051995;28;20106;-57
2021/12/12 00:19:24;;;;;;;39.08;27.45;;;1.70;99.90;;;;;;5059726;28;20379;-58
2021/12/12 00:21:55;;;;;;;36.30;26.60;;;1.70;99.90;;;;;;5070682;28;20728;-58
2021/12/12 00:24:21;;;;;;;37.22;26.42;;;1.60;99.90;;;;;;5069467;28;20098;-58
2021/12/12 00:26:51;;;;;;;37.90;26.85;;;1.70;99.90;;;;;;5071249;28;20020;-57
2021/12/12 00:29:19;;;;;;;37.33;26.58;;;1.70;99.90;;;;;;5051155;28;20116;-58
2021/12/12 00:31:46;;;;;;;35.45;25.38;;;1.60;99.90;;;;;;5049374;28;20464;-58
2021/12/12 00:34:13;;;;;;;39.03;26.83;;;1.60;99.90;;;;;;5051032;28;20067;-58
2021/12/12 00:36:41;;;;;;;39.78;26.85;;;1.60;99.90;;;;;;5051804;28;20349;-59
2021/12/12 00:39:20;;;;;;;34.72;25.00;;;1.60;99.90;;;;;;5049440;28;20021;-58
2021/12/12 00:41:54;;;;;;;36.80;26.15;;;1.60;99.90;;;;;;5050838;28;20037;-58
2021/12/12 00:44:21;;;;;;;39.13;25.85;;;1.60;99.90;;;;;;5061258;28;20021;-58
2021/12/12 00:46:47;;;;;;;36.40;24.67;;;1.60;99.90;;;;;;5070227;28;20031;-57
2021/12/12 00:49:14;;;;;;;34.10;24.25;;;1.70;99.90;;;;;;5068010;28;20029;-57
2021/12/12 00:51:43;;;;;;;37.33;25.55;;;1.70;99.90;;;;;;5051006;28;20317;-58
2021/12/12 00:54:11;;;;;;;32.35;23.17;;;1.70;99.90;;;;;;5049014;28;20136;-56
2021/12/12 00:56:38;;;;;;;34.50;25.38;;;1.80;99.90;;;;;;5050772;28;20039;-58
2021/12/12 00:59:05;;;;;;;36.80;25.20;;;1.70;99.90;;;;;;5051648;28;20551;-59
2021/12/12 01:01:35;;;;;;;34.80;24.73;;;1.70;99.90;;;;;;5067942;28;20637;-58
2021/12/12 01:04:07;;;;;;;35.50;24.73;;;1.60;99.90;;;;;;5055070;28;20456;-57
2021/12/12 01:06:33;;;;;;;40.00;25.75;;;1.60;99.90;;;;;;5053374;28;20017;-58
2021/12/12 01:09:03;;;;;;;38.47;26.73;;;1.60;99.90;;;;;;5059729;28;20029;-56
2021/12/12 01:11:34;;;;;;;36.95;25.58;;;1.60;99.90;;;;;;5050706;28;20379;-58
2021/12/12 01:14:00;;;;;;;34.83;25.20;;;1.50;99.90;;;;;;5050057;28;20183;-56
2021/12/12 01:17:11;;;;;;;37.83;25.73;;;1.40;99.90;;;;;;5058366;28;20081;-57
2021/12/12 01:19:45;;;;;;;40.15;24.83;;;1.30;99.90;;;;;;5047199;28;20652;-58
2021/12/12 01:22:17;;;;;;;38.75;26.55;;;1.10;99.90;;;;;;5046683;28;20025;-57
2021/12/12 01:24:47;;;;;;;40.05;27.27;;;1.00;99.90;;;;;;5046937;28;20075;-58
2021/12/12 01:27:13;;;;;;;40.33;28.42;;;0.90;99.90;;;;;;5047613;28;20048;-56
2021/12/12 01:29:40;;;;;;;39.22;25.60;;;0.80;99.90;;;;;;5049548;28;20036;-58
2021/12/12 01:32:12;;;;;;;41.38;28.02;;;0.80;99.90;;;;;;5050737;28;20585;-57
2021/12/12 01:34:39;;;;;;;39.28;27.92;;;0.70;99.90;;;;;;5060206;28;20518;-58
2021/12/12 01:39:50;;;;;;;44.65;30.67;;;0.40;99.90;;;;;;5049826;28;20033;-57
2021/12/12 01:42:28;;;;;;;50.70;32.03;;;0.30;99.90;;;;;;5049262;28;20087;-58
2021/12/12 01:45:10;;;;;;;51.10;31.58;;;0.10;99.90;;;;;;5064968;28;20028;-58
2021/12/12 01:47:53;;;;;;;48.47;32.45;;;0.00;99.90;;;;;;5069084;28;20083;-58
2021/12/12 01:50:25;;;;;;;55.40;32.47;;;-0.10;99.90;;;;;;5047935;28;20029;-58
2021/12/12 01:52:52;;;;;;;48.92;32.22;;;-0.20;99.90;;;;;;5050260;28;20491;-58
2021/12/12 01:55:28;;;;;;;49.38;32.25;;;-0.20;99.90;;;;;;5067886;28;20031;-58
2021/12/12 01:57:57;;;;;;;50.33;33.10;;;-0.30;99.90;;;;;;5068366;28;20487;-58
2021/12/12 02:00:54;;;;;;;53.33;36.30;;;-0.40;99.90;;;;;;5068358;28;20091;-57
2021/12/12 02:03:23;;;;;;;55.75;33.50;;;-0.40;99.90;;;;;;5052742;28;20028;-58
2021/12/12 02:05:50;;;;;;;50.78;33.95;;;-0.50;99.90;;;;;;5069909;28;20020;-58
2021/12/12 02:08:17;;;;;;;52.60;35.15;;;-0.50;99.90;;;;;;5055805;28;20112;-58
2021/12/12 02:10:51;;;;;;;49.28;34.45;;;-0.50;99.90;;;;;;5060958;28;20379;-58
2021/12/12 02:13:18;;;;;;;;;;;-0.50;99.90;;;;;;5065365;28;20056;-58
2021/12/12 02:15:46;;;;;;;56.25;33.42;;;-0.50;99.90;;;;;;5049533;28;20375;-58
2021/12/12 02:18:15;;;;;;;57.65;36.08;;;-0.40;99.90;;;;;;5055248;28;20028;-58
2021/12/12 02:20:52;;;;;;;58.08;37.20;;;-0.40;99.90;;;;;;5059007;28;20021;-58
2021/12/12 02:23:30;;;;;;;50.83;34.40;;;-0.20;99.90;;;;;;5049402;28;20025;-58
2021/12/12 02:37:02;;;;;;;51.25;33.25;;;0.60;99.90;;;;;;5048844;28;20097;-59
2021/12/12 02:39:28;;;;;;;51.15;32.92;;;0.70;99.90;;;;;;5049992;28;20479;-58
2021/12/12 02:41:57;;;;;;;52.17;33.30;;;0.70;99.90;;;;;;5056848;28;20032;-58
2021/12/12 02:44:29;;;;;;;47.60;33.13;;;0.70;99.90;;;;;;5068626;28;20446;-57
2021/12/12 02:46:58;;;;;;;44.03;31.67;;;0.80;99.90;;;;;;5069023;28;20633;-56
2021/12/12 02:52:12;;;;;;;40.22;29.08;;;0.80;99.90;;;;;;5069634;28;20028;-58
2021/12/12 02:54:39;;;;;;;39.88;28.80;;;0.80;99.90;;;;;;5069185;28;20025;-57
2021/12/12 02:57:06;;;;;;;42.35;29.33;;;0.90;99.90;;;;;;5070533;28;20396;-57
2021/12/12 02:59:34;;;;;;;43.38;28.70;;;0.80;99.90;;;;;;5071011;28;20032;-58
2021/12/12 03:02:13;;;;;;;41.13;29.10;;;0.90;99.90;;;;;;5073126;28;20059;-58
2021/12/12 03:04:40;;;;;;;39.00;27.02;;;0.80;99.90;;;;;;5069460;28;20027;-58
2021/12/12 03:07:07;;;;;;;38.17;26.42;;;0.90;99.90;;;;;;5058486;28;20025;-58
2021/12/12 03:09:38;;;;;;;41.08;28.33;;;0.80;99.90;;;;;;5067708;28;20468;-58
2021/12/12 03:12:11;;;;;;;35.80;26.48;;;0.80;99.90;;;;;;5072264;28;20111;-58
2021/12/12 03:14:39;;;;;;;38.67;27.17;;;0.80;99.90;;;;;;5053003;28;20045;-58
2021/12/12 03:17:12;;;;;;;42.00;29.63;;;0.80;99.90;;;;;;5052982;28;20025;-58
2021/12/12 03:19:38;;;;;;;39.45;25.58;;;0.80;99.90;;;;;;5052706;28;20048;-56
2021/12/12 03:22:07;;;;;;;39.72;26.58;;;0.80;99.90;;;;;;5056295;28;20024;-58
2021/12/12 03:24:33;;;;;;;33.83;24.65;;;0.80;99.90;;;;;;5057963;28;20029;-57
2021/12/12 03:27:01;;;;;;;35.95;24.95;;;0.80;99.90;;;;;;5052315;28;20519;-57
2021/12/12 03:29:28;;;;;;;37.78;26.40;;;0.70;99.90;;;;;;5064332;28;20035;-57
2021/12/12 03:32:00;;;;;;;37.03;24.58;;;0.70;99.90;;;;;;5071810;28;20462;-57
2021/12/12 03:34:31;;;;;;;37.25;28.05;;;0.80;99.90;;;;;;5072097;28;20032;-58
2021/12/12 03:36:58;;;;;;;34.40;24.85;;;0.80;99.90;;;;;;5072320;28;20475;-58
2021/12/12 03:39:31;;;;;;;36.33;25.70;;;0.80;99.90;;;;;;5070450;28;20029;-58
2021/12/12 03:42:01;;;;;;;30.33;22.73;;;0.80;99.90;;;;;;5070879;28;20020;-56
2021/12/12 03:44:30;;;;;;;27.88;21.85;;;0.80;99.90;;;;;;5068261;28;20029;-55
2021/12/12 03:47:02;;;;;;;32.17;22.83;;;0.80;99.90;;;;;;5051759;28;20108;-58
2021/12/12 03:49:28;;;;;;;37.00;23.73;;;0.90;99.90;;;;;;5051965;28;20482;-57
2021/12/12 03:51:55;;;;;;;37.33;23.33;;;0.90;99.90;;;;;;5050940;28;20037;-56
2021/12/12 03:54:20;;;;;;;32.45;24.15;;;0.90;99.90;;;;;;5050007;28;20021;-56
2021/12/12 03:56:47;;;;;;;33.58;24.42;;;0.90;99.90;;;;;;5052954;28;20470;-57
2021/12/12 03:59:14;;;;;;;31.05;23.90;;;0.90;99.90;;;;;;5052035;28;20017;-56
2021/12/12 04:01:46;;;;;;;31.08;23.48;;;1.00;99.90;;;;;;5061596;28;20039;-59
2021/12/12 04:04:19;;;;;;;37.15;24.45;;;0.90;99.90;;;;;;5065673;28;20028;-59
2021/12/12 04:06:45;;;;;;;33.95;25.10;;;1.00;99.90;;;;;;5054267;28;20017;-58
2021/12/12 04:09:13;;;;;;;34.17;24.70;;;0.90;99.90;;;;;;5069305;28;20386;-58
2021/12/12 04:11:46;;;;;;;32.50;24.27;;;0.90;99.90;;;;;;5065028;28;20028;-58
2021/12/12 04:14:12;;;;;;;31.15;23.35;;;1.00;99.90;;;;;;5051279;28;20045;-58
2021/12/12 04:16:42;;;;;;;34.05;23.92;;;1.00;99.90;;;;;;5055284;28;20033;-58
2021/12/12 04:19:08;;;;;;;31.98;24.25;;;0.90;99.90;;;;;;5070374;28;20086;-58
2021/12/12 04:21:36;;;;;;;33.42;24.42;;;1.00;99.90;;;;;;5070038;28;20081;-57
2021/12/12 04:24:02;;;;;;;29.75;22.50;;;1.00;99.90;;;;;;5071091;28;20029;-57
2021/12/12 04:26:39;;;;;;;34.33;24.20;;;1.00;99.90;;;;;;5059853;28;20684;-58
2021/12/12 04:29:08;;;;;;;34.50;23.73;;;1.00;99.90;;;;;;5050946;28;20048;-58
2021/12/12 04:31:36;;;;;;;30.15;22.67;;;1.00;99.90;;;;;;5051376;28;20033;-57
2021/12/12 04:34:03;;;;;;;39.80;22.83;;;1.00;99.90;;;;;;5052346;28;20048;-58
2021/12/12 04:36:39;;;;;;;30.98;21.30;;;1.10;99.90;;;;;;5051254;28;20463;-57
2021/12/12 04:39:11;;;;;;;26.85;20.95;;;1.20;99.90;;;;;;5062737;28;20415;-57
2021/12/12 04:41:38;;;;;;;31.10;22.98;;;1.20;99.90;;;;;;5070446;28;20403;-59
2021/12/12 04:44:04;;;;;;;30.25;21.60;;;1.10;99.90;;;;;;5052420;28;20067;-58
2021/12/12 04:49:54;;;;;;;32.03;21.02;;;1.20;99.90;;;;;;5056465;28;20372;-58
2021/12/12 04:52:15;;;;;;;28.90;21.88;;;1.20;99.90;;;;;;5058941;28;20052;-57
2021/12/12 04:54:53;;;;;;;28.48;20.48;;;1.20;99.90;;;;;;5070059;28;20055;-57
2021/12/12 04:57:56;;;;;;;31.15;21.17;;;1.30;99.90;;;;;;5070644;28;20020;-58
2021/12/12 05:00:28;;;;;;;30.30;22.50;;;1.30;99.90;;;;;;5058759;28;20032;-58
2021/12/12 05:03:06;;;;;;;30.70;21.45;;;1.20;99.90;;;;;;5069038;28;20029;-56
2021/12/12 05:05:54;;;;;;;32.85;22.63;;;1.20;99.90;;;;;;5070230;28;20027;-58
2021/12/12 05:08:37;;;;;;;33.00;23.98;;;1.20;99.90;;;;;;5067124;28;20028;-58
2021/12/12 05:11:11;;;;;;;35.17;23.88;;;1.10;99.90;;;;;;5050636;28;20025;-57
2021/12/12 05:13:49;;;;;;;31.08;21.30;;;1.10;99.90;;;;;;5061439;28;20043;-58
2021/12/12 05:16:22;;;;;;;30.50;22.35;;;1.20;99.90;;;;;;5050218;28;20037;-58
2021/12/12 05:18:52;;;;;;;27.77;20.50;;;1.20;99.90;;;;;;5066333;28;20483;-59
2021/12/12 05:21:25;;;;;;;28.73;18.88;;;1.30;99.90;;;;;;5049120;28;20451;-58
2021/12/12 05:23:55;;;;;;;30.70;21.00;;;1.40;99.90;;;;;;5050399;28;20021;-57
2021/12/12 05:26:53;;;;;;;28.05;20.58;;;1.40;99.90;;;;;;5048986;28;20021;-57
2021/12/12 05:29:27;;;;;;;24.67;18.80;;;1.40;99.90;;;;;;5050257;28;20515;-58
2021/12/12 05:31:56;;;;;;;31.55;21.85;;;1.40;99.90;;;;;;5050035;28;20029;-58
2021/12/12 05:34:27;;;;;;;30.90;20.50;;;1.40;99.90;;;;;;5055633;28;20501;-56
2021/12/12 05:36:53;;;;;;;34.33;23.98;;;1.50;99.90;;;;;;5070312;28;20395;-58
2021/12/12 05:39:20;;;;;;;45.83;23.60;;;1.40;99.90;;;;;;5069782;28;20032;-58
2021/12/12 05:41:47;;;;;;;31.38;22.15;;;1.40;99.90;;;;;;5070001;28;20099;-59
2021/12/12 05:44:15;;;;;;;37.45;26.60;;;1.40;99.90;;;;;;5069352;28;20071;-58
2021/12/12 05:46:41;;;;;;;32.42;23.52;;;1.30;99.90;;;;;;5069888;28;20107;-56
2021/12/12 05:49:07;;;;;;;32.80;23.40;;;1.30;99.90;;;;;;5069964;28;20028;-56
2021/12/12 05:51:35;;;;;;;31.33;24.20;;;1.40;99.90;;;;;;5055797;28;20049;-57
2021/12/12 05:54:02;;;;;;;34.13;22.17;;;1.40;99.90;;;;;;5050119;28;20083;-56
2021/12/12 05:56:30;;;;;;;35.38;23.60;;;1.30;99.90;;;;;;5050096;28;20033;-57
2021/12/12 05:58:57;;;;;;;38.97;27.92;;;1.40;99.90;;;;;;5057600;28;20086;-58
2021/12/12 06:01:24;;;;;;;32.17;24.05;;;1.40;99.90;;;;;;5068111;28;20025;-58
2021/12/12 06:03:51;;;;;;;33.45;22.42;;;1.40;99.90;;;;;;5050099;28;20155;-55
2021/12/12 06:06:31;;;;;;;31.73;23.00;;;1.40;99.90;;;;;;5050118;28;20013;-58
2021/12/12 06:09:00;;;;;;;33.70;23.60;;;1.40;99.90;;;;;;5067405;28;20024;-58
2021/12/12 06:11:30;;;;;;;31.45;22.85;;;1.40;99.90;;;;;;5070060;28;20175;-57
2021/12/12 06:13:56;;;;;;;34.13;22.98;;;1.50;99.90;;;;;;5069323;28;20045;-58
2021/12/12 06:16:23;;;;;;;33.97;22.45;;;1.50;99.90;;;;;;5068749;28;20033;-56
2021/12/12 06:19:06;;;;;;;31.65;23.23;;;1.50;99.90;;;;;;5069637;28;20275;-57
2021/12/12 06:21:33;;;;;;;34.72;23.58;;;1.50;99.90;;;;;;5064665;28;20029;-56
2021/12/12 06:24:00;;;;;;;31.95;23.05;;;1.50;99.90;;;;;;5065797;28;20066;-57
2021/12/12 06:26:27;;;;;;;32.63;22.77;;;1.50;99.90;;;;;;5053834;28;20115;-58
2021/12/12 06:28:53;;;;;;;34.55;23.25;;;1.50;99.90;;;;;;5050821;28;20025;-56
2021/12/12 06:31:19;;;;;;;34.40;23.45;;;1.50;99.90;;;;;;5050841;28;20468;-58
2021/12/12 06:33:45;;;;;;;33.35;23.45;;;1.50;99.90;;;;;;5054674;28;20036;-59
2021/12/12 06:36:13;;;;;;;33.10;23.83;;;1.50;99.90;;;;;;5053283;28;20051;-58
2021/12/12 06:38:42;;;;;;;34.30;23.15;;;1.50;99.90;;;;;;5064152;28;20027;-57
2021/12/12 06:41:09;;;;;;;37.65;25.20;;;1.60;99.90;;;;;;5073171;28;20111;-59
2021/12/12 06:43:36;;;;;;;33.85;22.35;;;1.60;99.90;;;;;;5062914;28;20162;-58
2021/12/12 06:46:05;;;;;;;37.83;26.40;;;1.60;99.90;;;;;;5053310;28;20427;-58
2021/12/12 06:48:32;;;;;;;34.92;23.88;;;1.50;99.90;;;;;;5053179;28;20025;-57
2021/12/12 06:50:58;;;;;;;37.55;26.00;;;1.60;99.90;;;;;;5056345;28;20390;-59
2021/12/12 06:53:29;;;;;;;41.33;27.90;;;1.50;99.90;;;;;;5069274;28;20104;-58
2021/12/12 06:55:56;;;;;;;37.50;25.30;;;1.60;99.90;;;;;;5053053;28;20487;-59
2021/12/12 06:58:24;;;;;;;41.63;26.08;;;1.60;99.90;;;;;;5054329;28;20033;-59
2021/12/12 07:00:54;;;;;;;39.50;26.30;;;1.50;99.90;;;;;;5052904;28;20094;-59
2021/12/12 07:03:21;;;;;;;46.72;29.58;;;1.60;99.90;;;;;;5058075;28;20029;-59
2021/12/12 07:05:48;;;;;;;43.20;26.60;;;1.60;99.90;;;;;;5086226;28;20059;-58
2021/12/12 07:08:16;;;;;;;43.90;26.88;;;1.70;99.90;;;;;;5093135;28;20016;-59
2021/12/12 07:10:43;;;;;;;39.60;25.08;;;1.70;99.90;;;;;;5053071;28;20491;-59
2021/12/12 07:13:09;;;;;;;43.72;28.17;;;1.60;99.90;;;;;;5051000;28;20041;-58
2021/12/12 07:15:49;;;;;;;44.70;28.45;;;1.70;99.90;;;;;;5052970;28;20024;-59
2021/12/12 07:18:18;;;;;;;56.80;33.45;;;1.70;99.90;;;;;;5052683;28;20108;-59
2021/12/12 07:20:48;;;;;;;52.25;31.40;;;1.60;99.90;;;;;;5055563;28;20139;-58
2021/12/12 07:23:14;;;;;;;74.70;38.25;;;1.60;99.90;;;;;;5057484;28;20116;-58
2021/12/12 07:25:41;;;;;;;61.88;33.35;;;1.70;99.90;;;;;;5071115;28;20115;-58
2021/12/12 07:28:07;;;;;;;43.55;27.65;;;1.70;99.90;;;;;;5070663;28;20104;-59
2021/12/12 07:30:34;;;;;;;47.33;26.88;;;1.70;99.90;;;;;;5072555;28;20051;-58
2021/12/12 07:33:03;;;;;;;46.17;28.48;;;1.80;99.90;;;;;;5070901;28;20024;-59
2021/12/12 07:35:31;;;;;;;44.22;25.75;;;1.80;99.90;;;;;;5070893;28;20028;-59
2021/12/12 07:37:58;;;;;;;56.38;29.50;;;1.90;99.90;;;;;;5072338;28;20033;-58
2021/12/12 07:40:24;;;;;;;149.65;54.28;;;1.80;99.90;;;;;;5071930;28;20348;-59
2021/12/12 07:42:50;;;;;;;210.88;71.25;;;1.70;99.90;;;;;;5070956;28;20021;-59
2021/12/12 07:45:20;;;;;;;234.25;80.70;;;1.80;99.90;;;;;;5072362;28;20039;-59
2021/12/12 07:47:47;;;;;;;179.63;61.83;;;1.70;99.90;;;;;;5067550;28;20458;-58
2021/12/12 07:50:16;;;;;;;494.45;164.70;;;1.80;99.90;;;;;;5052369;28;20083;-59
2021/12/12 07:52:44;;;;;;;97.70;42.35;;;1.70;99.90;;;;;;5058025;28;20464;-59
2021/12/12 07:55:10;;;;;;;38.60;23.42;;;1.80;99.90;;;;;;5069159;28;20111;-58
2021/12/12 07:57:36;;;;;;;42.38;22.92;;;1.90;99.90;;;;;;5070208;28;20105;-59
2021/12/12 08:00:07;;;;;;;66.40;35.05;;;2.00;99.90;;;;;;5072023;28;20024;-59
2021/12/12 08:02:33;;;;;;;150.30;54.38;;;1.90;99.90;;;;;;5070829;28;20055;-59
2021/12/12 08:04:59;;;;;;;37.70;23.92;;;2.00;99.90;;;;;;5071583;28;20124;-59
2021/12/12 08:07:25;;;;;;;110.10;48.95;;;2.00;99.90;;;;;;5065680;28;20363;-59
2021/12/12 08:09:52;;;;;;;75.75;46.78;;;2.00;99.90;;;;;;5055477;28;20115;-59
2021/12/12 08:12:23;;;;;;;39.05;23.67;;;2.10;99.90;;;;;;5060194;28;20110;-59
2021/12/12 08:14:49;;;;;;;56.88;33.17;;;2.10;99.90;;;;;;5053624;28;20044;-59
2021/12/12 08:17:19;;;;;;;44.28;26.42;;;2.10;99.90;;;;;;5072002;28;20101;-59
2021/12/12 08:19:48;;;;;;;34.13;21.80;;;2.10;99.90;;;;;;5072218;28;20035;-59
2021/12/12 08:22:14;;;;;;;38.88;22.45;;;2.20;99.90;;;;;;5072181;28;20016;-59
2021/12/12 08:24:40;;;;;;;35.78;22.90;;;2.20;99.90;;;;;;5070406;28;20376;-59
2021/12/12 08:27:09;;;;;;;34.45;20.67;;;2.20;99.90;;;;;;5071712;28;20040;-59
2021/12/12 08:29:36;;;;;;;29.55;19.73;;;2.20;99.90;;;;;;5071415;28;20439;-58
2021/12/12 08:32:07;;;;;;;30.23;20.75;;;2.30;99.90;;;;;;5072351;28;20052;-59
2021/12/12 08:34:33;;;;;;;31.90;20.98;;;2.40;99.90;;;;;;5072335;28;20016;-59
2021/12/12 08:36:59;;;;;;;30.65;20.77;;;2.30;99.90;;;;;;5072021;28;20025;-58
2021/12/12 08:39:27;;;;;;;27.50;18.85;;;2.40;99.90;;;;;;5072195;28;20028;-59
2021/12/12 08:41:54;;;;;;;28.88;20.30;;;2.40;99.90;;;;;;5070923;28;20035;-59
2021/12/12 08:44:26;;;;;;;30.58;19.75;;;2.60;99.90;;;;;;5070141;28;20028;-59
2021/12/12 08:46:54;;;;;;;26.45;18.85;;;2.70;99.90;;;;;;5066327;28;20029;-59
2021/12/12 08:49:23;;;;;;;23.73;16.70;;;2.70;99.90;;;;;;5088777;28;20020;-59
2021/12/12 08:51:52;;;;;;;27.73;18.08;;;2.80;99.90;;;;;;5087357;28;20031;-59
2021/12/12 08:54:26;;;;;;;23.10;17.02;;;2.70;99.90;;;;;;5069700;28;20032;-59
2021/12/12 08:57:05;;;;;;;24.70;18.40;;;2.90;99.90;;;;;;5071530;28;20035;-59
2021/12/12 08:59:34;;;;;;;23.42;15.75;;;2.90;99.90;;;;;;5082593;28;20028;-59
2021/12/12 09:02:05;;;;;;;20.70;16.20;;;3.00;99.90;;;;;;5090584;28;20051;-60
2021/12/12 09:04:35;;;;;;;20.67;15.07;;;3.00;99.90;;;;;;5082808;28;20375;-59
2021/12/12 09:07:07;;;;;;;27.35;16.45;;;3.10;99.90;;;;;;5070575;28;20097;-59
2021/12/12 09:09:40;;;;;;;22.17;15.95;;;3.10;99.90;;;;;;5071345;28;20091;-58
2021/12/12 09:12:15;;;;;;;20.50;15.75;;;3.20;99.90;;;;;;5071089;28;20608;-59
2021/12/12 09:14:55;;;;;;;20.80;14.98;;;3.20;99.90;;;;;;5068582;28;20032;-57
2021/12/12 09:17:27;;;;;;;20.42;14.90;;;3.40;99.90;;;;;;5071211;28;20032;-58
2021/12/12 09:20:24;;;;;;;20.87;15.57;;;3.60;99.90;;;;;;5082408;28;20097;-59
2021/12/12 09:23:01;;;;;;;20.73;15.20;;;3.70;99.90;;;;;;5067497;28;20510;-59
2021/12/12 09:25:50;;;;;;;24.13;13.95;;;3.80;99.90;;;;;;5060987;28;20038;-59
2021/12/12 09:28:22;;;;;;;18.98;14.57;;;3.90;99.90;;;;;;5070687;28;20098;-59
2021/12/12 09:30:48;;;;;;;18.63;14.25;;;3.80;99.90;;;;;;5053308;28;20036;-59
2021/12/12 09:33:27;;;;;;;17.92;14.38;;;3.70;99.90;;;;;;5051298;28;20120;-59
2021/12/12 09:35:57;;;;;;;25.67;13.70;;;3.70;99.90;;;;;;5051017;28;20021;-59
2021/12/12 09:38:30;;;;;;;20.17;14.40;;;3.70;99.90;;;;;;5050424;28;20033;-59
2021/12/12 09:41:14;;;;;;;15.98;12.82;;;3.30;99.90;;;;;;5065549;28;20041;-59
2021/12/12 09:43:59;;;;;;;20.73;12.63;;;3.40;99.90;;;;;;5070793;28;20017;-59
2021/12/12 09:47:25;;;;;;;21.20;13.27;;;3.20;99.90;;;;;;5070526;28;20020;-59
2021/12/12 09:53:22;;;;;;;21.63;13.00;;;3.50;99.90;;;;;;5070876;28;20035;-53
2021/12/12 09:56:28;;;;;;;21.27;14.55;;;3.40;99.90;;;;;;5069610;28;20455;-58
2021/12/12 09:59:21;;;;;;;25.23;16.13;;;3.50;99.90;;;;;;5069940;28;20357;-55
2021/12/12 10:02:27;;;;;;;30.05;18.90;;;3.70;99.90;;;;;;5070025;28;20027;-52
2021/12/12 10:04:53;;;;;;;27.33;18.52;;;3.50;99.90;;;;;;5051336;28;20029;-58
2021/12/12 10:07:36;;;;;;;26.48;16.88;;;3.60;99.90;;;;;;5053612;28;20087;-59
2021/12/12 10:10:11;;;;;;;27.42;17.58;;;3.90;99.90;;;;;;5054771;28;20025;-58
2021/12/12 10:12:46;;;;;;;22.65;14.68;;;3.80;99.90;;;;;;5054344;28;20091;-56
2021/12/12 10:15:19;;;;;;;32.25;17.23;;;3.80;99.90;;;;;;5070527;28;20419;-58
2021/12/12 10:17:51;;;;;;;36.25;21.85;;;3.70;99.90;;;;;;5073590;28;20036;-58
2021/12/12 10:20:37;;;;;;;23.63;15.95;;;3.90;99.90;;;;;;5074696;28;20036;-56
2021/12/12 10:23:19;;;;;;;23.80;16.27;;;4.10;99.90;;;;;;5073171;28;20059;-57
2021/12/12 10:25:45;;;;;;;21.05;13.95;;;4.00;99.90;;;;;;5075193;28;20025;-57
2021/12/12 10:28:20;;;;;;;18.20;11.57;;;4.70;99.90;;;;;;5074778;28;20483;-56
2021/12/12 10:31:07;;;;;;;13.98;9.50;;;5.00;99.90;;;;;;5064838;28;20025;-59
2021/12/12 10:33:42;;;;;;;14.65;11.30;;;5.30;99.90;;;;;;5054649;28;20029;-59
2021/12/12 10:36:13;;;;;;;16.13;11.98;;;5.00;99.90;;;;;;5054744;28;20067;-59
2021/12/12 10:39:04;;;;;;;13.02;10.27;;;4.80;99.90;;;;;;5054698;28;20029;-59
2021/12/12 10:41:43;;;;;;;12.73;10.32;;;5.10;99.90;;;;;;5054481;28;20033;-59
2021/12/12 10:44:31;;;;;;;14.40;11.90;;;4.70;99.90;;;;;;5054444;28;20476;-59
2021/12/12 10:47:08;;;;;;;12.38;9.80;;;4.60;99.90;;;;;;5054541;28;20052;-59
2021/12/12 10:49:52;;;;;;;11.80;9.82;;;4.80;99.90;;;;;;5054364;28;20029;-59
2021/12/12 10:52:47;;;;;;;11.77;10.02;;;4.40;99.90;;;;;;5054349;28;20032;-58
2021/12/12 10:55:17;;;;;;;14.02;8.70;;;4.30;99.90;;;;;;5052983;28;20392;-59
2021/12/12 10:57:49;;;;;;;12.02;8.82;;;4.20;99.90;;;;;;5054371;28;20079;-59
2021/12/12 11:00:23;;;;;;;10.03;8.70;;;4.30;99.90;;;;;;5054326;28;20021;-59
2021/12/12 11:02:55;;;;;;;;;;;4.50;99.90;;;;;;5054773;28;20029;-60
2021/12/12 11:05:45;;;;;;;9.50;7.22;;;4.40;99.90;;;;;;5054360;28;19900;-55
2021/12/12 11:08:29;;;;;;;10.02;7.95;;;4.40;99.90;;;;;;5054047;28;20367;-56
2021/12/12 11:10:58;;;;;;;9.00;7.93;;;4.30;99.90;;;;;;5067108;28;20032;-56
2021/12/12 11:13:31;;;;;;;11.80;8.50;;;4.50;99.90;;;;;;5074012;28;20434;-56
2021/12/12 11:16:10;;;;;;;9.63;8.15;;;4.30;99.90;;;;;;5073919;28;20032;-58
2021/12/12 11:18:55;;;;;;;9.38;7.80;;;4.40;99.90;;;;;;5073985;28;20426;-58
2021/12/12 11:21:24;;;;;;;10.02;8.68;;;4.50;99.90;;;;;;5068554;28;20036;-58
2021/12/12 11:27:33;;;;;;;12.60;7.80;;;4.60;99.90;;;;;;5024888;28;20166;-58
2021/12/12 11:30:07;;;;;;;13.13;9.43;;;4.80;99.90;;;;;;5041093;28;20405;-58
2021/12/12 11:32:35;;;;;;;11.82;8.52;;;5.30;99.90;;;;;;5042553;28;20036;-58
2021/12/12 11:35:02;;;;;;;10.95;7.53;;;7.20;99.90;;;;;;5042496;28;20117;-58
2021/12/12 11:37:47;;;;;;;6.78;5.93;;;8.60;99.10;;;;;;5043495;28;20131;-59
2021/12/12 11:40:22;;;;;;;6.13;5.38;;;10.30;92.50;;;;;;5041465;28;20124;-59
2021/12/12 11:42:59;;;;;;;7.93;5.60;;;10.00;87.30;;;;;;5043256;28;20520;-59
2021/12/12 11:45:38;;;;;;;7.22;5.80;;;12.00;82.20;;;;;;5043112;28;20032;-59
2021/12/12 11:48:23;;;;;;;7.55;6.13;;;11.40;78.90;;;;;;5042814;28;20096;-59
2021/12/12 11:50:54;;;;;;;6.35;5.47;;;10.80;80.30;;;;;;5043217;28;20021;-59
2021/12/12 11:53:29;;;;;;;6.82;5.57;;;10.70;77.70;;;;;;5042722;28;20462;-59
2021/12/12 11:56:14;;;;;;;6.95;5.63;;;10.10;80.10;;;;;;5042093;28;20190;-59
2021/12/12 11:58:50;;;;;;;7.82;6.35;;;9.10;82.30;;;;;;5042559;28;20037;-58
2021/12/12 12:01:24;;;;;;;8.00;6.53;;;9.20;85.30;;;;;;5041518;28;20037;-58
2021/12/12 12:04:20;;;;;;;9.95;6.65;;;8.60;87.30;;;;;;5042784;28;20116;-59
2021/12/12 12:07:13;;;;;;;9.85;7.18;;;7.60;90.50;;;;;;5042395;28;20033;-59
2021/12/12 12:09:51;;;;;;;13.88;10.07;;;7.40;91.70;;;;;;5041571;28;20047;-58
2021/12/12 12:12:38;;;;;;;15.48;10.13;;;7.20;92.80;;;;;;5041879;28;20500;-58
2021/12/12 12:15:12;;;;;;;11.80;8.35;;;6.80;93.70;;;;;;5042118;28;20045;-58
2021/12/12 12:17:58;;;;;;;39.00;18.90;;;6.20;97.00;;;;;;5042476;28;20025;-58
2021/12/12 12:20:28;;;;;;;20.30;11.25;;;6.20;99.00;;;;;;5042700;28;20492;-58
2021/12/12 12:23:16;;;;;;;20.88;10.70;;;6.70;98.20;;;;;;5043060;28;20079;-58
2021/12/12 12:28:42;;;;;;;15.45;9.50;;;6.60;97.60;;;;;;5042064;28;20040;-58
2021/12/12 12:31:39;;;;;;;28.00;14.38;;;6.70;98.30;;;;;;5041290;28;20025;-58
2021/12/12 12:34:38;;;;;;;149.88;51.35;;;6.20;99.30;;;;;;5041035;28;20141;-58
2021/12/12 12:37:41;;;;;;;56.35;21.08;;;5.90;99.90;;;;;;5041650;28;20582;-58
2021/12/12 12:40:28;;;;;;;66.78;27.52;;;5.70;99.90;;;;;;5041082;28;20139;-58
2021/12/12 12:43:31;;;;;;;38.83;17.83;;;6.10;99.90;;;;;;5041801;28;20036;-58
2021/12/12 12:46:51;;;;;;;13.68;9.93;;;6.20;99.90;;;;;;5039946;28;20929;-58
2021/12/12 12:49:43;;;;;;;20.00;11.35;;;6.50;99.90;;;;;;5018426;28;20040;-58
2021/12/12 12:52:46;;;;;;;75.25;26.50;;;6.00;99.90;;;;;;5040840;28;20029;-58
2021/12/12 12:55:50;;;;;;;11.65;7.18;;;6.00;99.90;;;;;;5041761;28;20033;-58
2021/12/12 12:58:39;;;;;;;52.65;19.92;;;6.40;99.90;;;;;;5041107;28;20033;-58
2021/12/12 13:01:16;;;;;;;73.80;29.00;;;6.20;99.90;;;;;;5039196;28;20436;-58
2021/12/12 13:04:03;;;;;;;27.55;14.77;;;5.40;99.90;;;;;;5040439;28;20167;-58
2021/12/12 13:06:53;;;;;;;11.25;6.88;;;5.30;99.90;;;;;;5039787;28;20025;-58
2021/12/12 13:09:27;;;;;;;35.10;17.50;;;5.40;99.90;;;;;;5041946;28;20653;-58
2021/12/12 13:11:58;;;;;;;40.05;19.48;;;5.30;99.90;;;;;;5042998;28;20685;-58
2021/12/12 13:14:48;;;;;;;19.40;11.02;;;5.60;99.90;;;;;;5038191;28;20053;-58
2021/12/12 13:17:44;;;;;;;10.40;7.60;;;6.50;99.90;;;;;;5060505;28;20037;-58
2021/12/12 13:20:40;;;;;;;10.07;8.70;;;6.90;99.90;;;;;;5046109;28;20048;-59
2021/12/12 13:23:15;;;;;;;7.93;7.00;;;8.20;97.70;;;;;;5058646;28;20045;-59
2021/12/12 13:25:50;;;;;;;7.68;5.78;;;9.90;93.50;;;;;;5040899;28;20017;-59
2021/12/12 13:28:28;;;;;;;9.27;6.80;;;11.00;88.60;;;;;;5057719;28;20052;-59
2021/12/12 13:31:17;;;;;;;9.70;6.32;;;12.20;80.20;;;;;;5048581;28;20040;-59
2021/12/12 13:34:03;;;;;;;10.57;7.20;;;13.40;73.40;;;;;;5060346;28;20050;-59
2021/12/12 13:36:54;;;;;;;6.97;6.28;;;15.20;65.40;;;;;;5061126;28;20032;-59
2021/12/12 13:39:49;;;;;;;9.43;6.45;;;14.40;60.30;;;;;;5060293;28;20383;-59
2021/12/12 13:42:28;;;;;;;8.30;6.72;;;14.10;62.80;;;;;;5036545;28;20083;-59